createdAt,value
2019-02-17T00:02:12.317Z,38.80
2019-02-17T00:04:45.327Z,39.23
2019-02-17T00:07:15.788Z,37.90
2019-02-17T00:09:46.521Z,37.63
2019-02-17T00:12:17.120Z,37.17
2019-02-17T00:14:47.892Z,45.27
2019-02-17T00:17:18.442Z,37.33
2019-02-17T00:19:48.892Z,38.17
2019-02-17T00:22:19.814Z,47.47
2019-02-17T00:24:50.662Z,49.73
2019-02-17T00:27:21.155Z,59.53
2019-02-17T00:29:51.718Z,53.77
2019-02-17T00:32:22.406Z,57.13
2019-02-17T00:34:52.982Z,64.53
2019-02-17T00:37:23.731Z,67.53
2019-02-17T00:39:54.192Z,69.30
2019-02-17T00:42:25.006Z,63.70
2019-02-17T00:44:55.490Z,64.47
2019-02-17T00:47:26.014Z,68.80
2019-02-17T00:49:56.794Z,67.07
2019-02-17T00:52:27.262Z,63.60
2019-02-17T00:54:57.788Z,61.97
2019-02-17T00:57:28.263Z,59.30
2019-02-17T00:59:58.725Z,59.13
2019-02-17T01:02:29.569Z,58.93
2019-02-17T01:05:00.019Z,57.47
2019-02-17T01:07:30.627Z,57.37
2019-02-17T01:10:01.217Z,54.43
2019-02-17T01:12:32.778Z,50.90
2019-02-17T01:15:03.584Z,54.97
2019-02-17T01:17:34.273Z,47.00
2019-02-17T01:20:05.691Z,49.37
2019-02-17T01:22:37.211Z,58.90
2019-02-17T01:25:08.322Z,57.70
2019-02-17T01:27:39.523Z,58.53
2019-02-17T01:30:13.801Z,66.70
2019-02-17T01:32:44.478Z,64.27
2019-02-17T01:35:15.149Z,73.23
2019-02-17T01:37:46.037Z,61.70
2019-02-17T01:40:16.689Z,57.17
2019-02-17T01:42:47.470Z,54.83
2019-02-17T01:45:17.881Z,58.53
2019-02-17T01:47:48.568Z,56.17
2019-02-17T01:50:20.070Z,66.30
2019-02-17T01:52:50.956Z,55.23
2019-02-17T01:55:21.762Z,56.03
2019-02-17T01:57:52.934Z,58.50
2019-02-17T02:00:23.568Z,64.17
2019-02-17T02:02:54.107Z,52.27
2019-02-17T02:05:24.566Z,59.20
2019-02-17T02:07:55.431Z,58.30
2019-02-17T02:10:25.855Z,54.80
2019-02-17T02:12:56.503Z,59.17
2019-02-17T02:15:27.047Z,56.50
2019-02-17T02:17:57.656Z,61.67
2019-02-17T02:20:29.752Z,52.37
2019-02-17T02:23:00.260Z,50.77
2019-02-17T02:25:30.906Z,51.77
2019-02-17T02:28:01.842Z,53.30
2019-02-17T02:30:32.343Z,52.03
2019-02-17T02:33:02.933Z,54.63
2019-02-17T02:35:33.443Z,57.27
2019-02-17T02:38:04.078Z,60.53
2019-02-17T02:40:34.489Z,63.13
2019-02-17T02:43:04.983Z,72.27
2019-02-17T02:45:35.983Z,73.97
2019-02-17T02:48:06.484Z,78.37
2019-02-17T02:50:37.378Z,78.20
2019-02-17T02:53:07.874Z,84.97
2019-02-17T02:55:38.750Z,84.83
2019-02-17T02:58:10.240Z,71.07
2019-02-17T03:00:40.930Z,62.30
2019-02-17T03:03:11.573Z,57.00
2019-02-17T03:05:51.646Z,53.93
2019-02-17T03:08:22.304Z,49.27
2019-02-17T03:10:52.811Z,42.63
2019-02-17T03:13:23.813Z,48.30
2019-02-17T03:15:54.285Z,48.57
2019-02-17T03:18:25.142Z,51.80
2019-02-17T03:20:55.811Z,49.47
2019-02-17T03:23:26.533Z,45.90
2019-02-17T03:25:57.107Z,48.13
2019-02-17T03:28:28.193Z,47.67
2019-02-17T03:30:58.684Z,49.10
2019-02-17T03:33:29.234Z,48.47
2019-02-17T03:35:59.810Z,46.57
2019-02-17T03:38:30.572Z,41.77
2019-02-17T03:41:01.139Z,47.73
2019-02-17T03:43:32.026Z,42.40
2019-02-17T03:46:02.481Z,41.27
2019-02-17T03:48:33.420Z,42.83
2019-02-17T03:51:03.888Z,42.90
2019-02-17T03:53:34.657Z,48.73
2019-02-17T03:56:06.071Z,51.87
2019-02-17T03:58:36.636Z,57.80
2019-02-17T04:01:07.162Z,57.03
2019-02-17T04:03:39.196Z,56.13
2019-02-17T04:06:09.656Z,58.10
2019-02-17T04:08:40.136Z,51.13
2019-02-17T04:11:10.911Z,50.03
2019-02-17T04:13:41.336Z,46.47
2019-02-17T04:16:11.905Z,54.63
2019-02-17T04:18:42.564Z,49.80
2019-02-17T04:21:12.985Z,49.73
2019-02-17T04:23:43.766Z,54.03
2019-02-17T04:26:14.214Z,56.73
2019-02-17T04:28:44.696Z,58.50
2019-02-17T04:31:15.353Z,62.73
2019-02-17T04:33:46.929Z,63.47
2019-02-17T04:36:17.421Z,63.77
2019-02-17T04:38:48.122Z,66.43
2019-02-17T04:41:18.849Z,59.50
2019-02-17T04:43:49.422Z,54.53
2019-02-17T04:46:19.887Z,54.37
2019-02-17T04:48:50.493Z,51.53
2019-02-17T04:51:22.168Z,52.10
2019-02-17T04:53:52.704Z,52.97
2019-02-17T04:56:23.196Z,56.77
2019-02-17T04:58:53.740Z,51.47
2019-02-17T05:01:24.296Z,51.67
2019-02-17T05:03:54.761Z,52.97
2019-02-17T05:06:25.196Z,50.83
2019-02-17T05:08:55.659Z,52.27
2019-02-17T05:11:26.143Z,55.00
2019-02-17T05:13:56.722Z,62.27
2019-02-17T05:16:27.163Z,60.67
2019-02-17T05:18:57.829Z,60.77
2019-02-17T05:21:28.550Z,56.57
2019-02-17T05:23:59.255Z,57.40
2019-02-17T05:26:29.794Z,48.27
2019-02-17T05:29:00.575Z,52.43
2019-02-17T05:31:31.274Z,53.43
2019-02-17T05:34:01.894Z,47.80
2019-02-17T05:36:32.335Z,48.67
2019-02-17T05:39:03.122Z,47.93
2019-02-17T05:41:35.558Z,44.23
2019-02-17T05:44:06.019Z,49.63
2019-02-17T05:46:36.463Z,52.50
2019-02-17T05:49:06.972Z,51.70
2019-02-17T05:51:37.419Z,52.87
2019-02-17T05:54:08.054Z,55.47
2019-02-17T05:56:38.546Z,53.83
2019-02-17T05:59:09.212Z,49.27
2019-02-17T06:01:39.796Z,47.13
2019-02-17T06:04:10.325Z,49.97
2019-02-17T06:06:41.034Z,45.63
2019-02-17T06:09:11.536Z,44.67
2019-02-17T06:11:42.114Z,43.83
2019-02-17T06:14:12.783Z,53.13
2019-02-17T06:16:43.272Z,51.23
2019-02-17T06:19:13.739Z,48.27
2019-02-17T06:21:44.338Z,54.43
2019-02-17T06:24:14.745Z,58.17
2019-02-17T06:26:45.498Z,55.87
2019-02-17T06:32:42.886Z,63.07
2019-02-17T06:35:13.675Z,57.67
2019-02-17T06:37:44.123Z,62.30
2019-02-17T06:40:14.697Z,59.77
2019-02-17T06:42:45.216Z,53.10
2019-02-17T06:45:15.774Z,58.30
2019-02-17T06:47:46.451Z,56.27
2019-02-17T06:50:16.988Z,54.57
2019-02-17T06:52:47.433Z,53.30
2019-02-17T06:55:31.308Z,54.90
2019-02-17T06:58:01.898Z,51.23
2019-02-17T07:00:42.043Z,51.87
2019-02-17T07:03:14.355Z,50.27
2019-02-17T07:06:06.317Z,51.73
2019-02-17T07:08:37.461Z,51.70
2019-02-17T07:11:08.392Z,48.93
2019-02-17T07:13:39.177Z,49.70
2019-02-17T07:16:09.748Z,51.60
2019-02-17T07:18:40.497Z,48.10
2019-02-17T07:21:11.185Z,49.93
2019-02-17T07:23:41.687Z,49.40
2019-02-17T07:26:12.318Z,43.27
2019-02-17T07:28:42.774Z,44.70
2019-02-17T07:31:13.355Z,45.50
2019-02-17T07:33:44.011Z,43.03
2019-02-17T07:36:14.562Z,49.97
2019-02-17T07:38:45.757Z,45.03
2019-02-17T07:41:17.251Z,47.27
2019-02-17T07:43:57.695Z,45.17
2019-02-17T07:46:28.323Z,44.63
2019-02-17T07:48:58.893Z,42.87
2019-02-17T07:51:29.471Z,44.67
2019-02-17T07:54:00.196Z,43.67
2019-02-17T07:56:30.787Z,41.83
2019-02-17T07:59:01.479Z,47.73
2019-02-17T08:01:32.007Z,48.80
2019-02-17T08:04:02.881Z,41.83
2019-02-17T08:06:34.085Z,45.53
2019-02-17T08:09:06.007Z,47.70
2019-02-17T08:11:37.649Z,43.93
2019-02-17T08:14:08.670Z,47.00
2019-02-17T08:16:39.370Z,42.57
2019-02-17T08:19:10.269Z,44.60
2019-02-17T08:21:40.874Z,41.10
2019-02-17T08:24:11.698Z,45.77
2019-02-17T08:26:42.662Z,46.57
2019-02-17T08:29:13.704Z,46.30
2019-02-17T08:31:44.274Z,44.03
2019-02-17T08:34:14.944Z,49.73
2019-02-17T08:36:45.688Z,43.73
2019-02-17T08:39:16.614Z,47.17
2019-02-17T08:41:47.246Z,47.77
2019-02-17T08:44:17.926Z,44.70
2019-02-17T08:46:48.716Z,47.80
2019-02-17T08:49:19.561Z,42.77
2019-02-17T08:51:50.146Z,42.67
2019-02-17T08:54:20.616Z,39.57
2019-02-17T08:56:51.430Z,44.67
2019-02-17T08:59:22.102Z,41.33
2019-02-17T09:01:52.678Z,41.40
2019-02-17T09:04:23.460Z,37.17
2019-02-17T09:06:54.161Z,31.73
2019-02-17T09:09:24.687Z,31.27
2019-02-17T09:11:55.155Z,31.50
2019-02-17T09:14:25.755Z,30.17
2019-02-17T09:16:56.233Z,46.00
2019-02-17T09:19:26.672Z,37.87
2019-02-17T09:21:57.386Z,53.53
2019-02-17T09:24:27.847Z,32.90
2019-02-17T09:26:58.311Z,75.53
2019-02-17T09:29:28.956Z,196.37
2019-02-17T09:31:59.598Z,226.80
2019-02-17T09:34:30.163Z,168.50
2019-02-17T09:37:00.921Z,152.70
2019-02-17T09:39:31.532Z,80.33
2019-02-17T09:42:02.288Z,95.23
2019-02-17T09:44:33.147Z,48.47
2019-02-17T09:47:03.754Z,24.20
2019-02-17T09:49:34.300Z,22.63
2019-02-17T09:52:04.973Z,23.53
2019-02-17T09:54:35.790Z,26.07
2019-02-17T09:57:06.374Z,23.33
2019-02-17T09:59:37.062Z,23.00
2019-02-17T10:02:07.802Z,22.43
2019-02-17T10:04:38.340Z,22.17
2019-02-17T10:07:08.984Z,19.40
2019-02-17T10:09:39.898Z,22.40
2019-02-17T10:12:10.440Z,24.90
2019-02-17T10:14:41.222Z,21.23
2019-02-17T10:17:11.976Z,19.87
2019-02-17T10:19:42.704Z,20.53
2019-02-17T10:22:13.246Z,22.90
2019-02-17T10:24:44.348Z,27.73
2019-02-17T10:27:14.954Z,20.00
2019-02-17T10:29:45.720Z,21.43
2019-02-17T10:32:16.557Z,23.27
2019-02-17T10:34:47.639Z,24.00
2019-02-17T10:37:18.335Z,20.13
2019-02-17T10:39:49.104Z,20.90
2019-02-17T10:42:19.831Z,17.93
2019-02-17T10:44:50.412Z,21.17
2019-02-17T10:47:21.053Z,24.93
2019-02-17T10:49:52.015Z,19.50
2019-02-17T10:52:22.811Z,23.13
2019-02-17T10:54:53.475Z,23.40
2019-02-17T10:57:24.509Z,23.20
2019-02-17T10:59:55.991Z,22.33
2019-02-17T11:02:34.325Z,22.03
2019-02-17T11:05:05.314Z,23.10
2019-02-17T11:07:36.123Z,20.17
2019-02-17T11:10:07.299Z,23.27
2019-02-17T11:12:38.076Z,21.50
2019-02-17T11:15:10.904Z,23.63
2019-02-17T11:17:41.678Z,20.50
2019-02-17T11:20:12.686Z,19.87
2019-02-17T11:22:43.342Z,19.83
2019-02-17T11:25:14.050Z,19.33
2019-02-17T11:27:44.535Z,17.57
2019-02-17T11:30:16.000Z,21.80
2019-02-17T11:32:56.886Z,24.53
2019-02-17T11:35:18.938Z,18.70
2019-02-17T11:37:49.800Z,20.90
2019-02-17T11:40:20.306Z,17.07
2019-02-17T11:42:50.841Z,19.63
2019-02-17T11:45:21.468Z,17.00
2019-02-17T11:47:52.436Z,17.20
2019-02-17T11:50:22.910Z,17.40
2019-02-17T11:52:53.722Z,14.67
2019-02-17T11:55:24.378Z,18.90
2019-02-17T11:57:55.242Z,20.67
2019-02-17T12:00:25.799Z,24.80
2019-02-17T12:02:56.483Z,16.30
2019-02-17T12:05:27.015Z,21.87
2019-02-17T12:07:57.792Z,18.57
2019-02-17T12:10:28.459Z,19.07
2019-02-17T12:12:59.149Z,17.43
2019-02-17T12:15:30.121Z,21.60
2019-02-17T12:18:00.999Z,18.47
2019-02-17T12:20:51.630Z,21.17
2019-02-17T12:23:33.886Z,22.17
2019-02-17T12:26:08.515Z,20.60
2019-02-17T12:28:48.962Z,22.17
2019-02-17T12:31:24.420Z,22.33
2019-02-17T12:33:55.205Z,25.13
2019-02-17T12:36:26.203Z,22.73
2019-02-17T12:38:56.677Z,23.07
2019-02-17T12:41:27.458Z,22.10
2019-02-17T12:43:57.882Z,18.33
2019-02-17T12:46:28.952Z,21.07
2019-02-17T12:48:59.578Z,20.37
2019-02-17T12:51:30.157Z,24.43
2019-02-17T12:54:00.991Z,19.53
2019-02-17T12:56:31.653Z,22.07
2019-02-17T12:59:02.183Z,27.43
2019-02-17T13:01:34.375Z,23.70
2019-02-17T13:04:05.039Z,22.70
2019-02-17T13:06:35.753Z,19.63
2019-02-17T13:09:07.903Z,21.63
2019-02-17T13:11:39.402Z,23.40
2019-02-17T13:14:10.050Z,18.77
2019-02-17T13:16:41.126Z,19.83
2019-02-17T13:19:11.996Z,21.20
2019-02-17T13:21:42.746Z,18.30
2019-02-17T13:24:13.464Z,23.13
2019-02-17T13:26:44.195Z,21.67
2019-02-17T13:29:14.772Z,22.63
2019-02-17T13:31:45.469Z,22.63
2019-02-17T13:34:16.241Z,20.43
2019-02-17T13:36:47.895Z,21.87
2019-02-17T13:39:18.559Z,23.10
2019-02-17T13:41:49.115Z,16.17
2019-02-17T13:44:19.862Z,19.50
2019-02-17T13:46:50.804Z,16.27
2019-02-17T13:49:21.566Z,13.33
2019-02-17T13:51:52.131Z,21.57
2019-02-17T13:54:22.841Z,15.43
2019-02-17T13:56:53.655Z,11.27
2019-02-17T13:59:24.387Z,10.90
2019-02-17T14:01:55.191Z,11.47
2019-02-17T14:04:25.965Z,13.67
2019-02-17T14:06:56.603Z,14.30
2019-02-17T14:09:27.192Z,9.83
2019-02-17T14:11:57.983Z,9.23
2019-02-17T14:14:29.427Z,9.47
2019-02-17T14:17:00.419Z,13.67
2019-02-17T14:19:31.859Z,11.37
2019-02-17T14:22:02.554Z,10.63
2019-02-17T14:24:33.523Z,11.53
2019-02-17T14:27:04.001Z,11.40
2019-02-17T14:29:34.733Z,12.33
2019-02-17T14:32:05.385Z,12.27
2019-02-17T14:34:36.055Z,12.07
2019-02-17T14:37:06.662Z,12.50
2019-02-17T14:39:37.440Z,13.80
2019-02-17T14:42:08.165Z,15.57
2019-02-17T14:44:38.996Z,11.33
2019-02-17T14:47:09.521Z,10.40
2019-02-17T14:49:40.523Z,14.20
2019-02-17T14:52:11.355Z,14.37
2019-02-17T14:54:41.906Z,13.37
2019-02-17T14:57:13.086Z,10.83
2019-02-17T14:59:44.030Z,14.00
2019-02-17T15:02:14.703Z,13.67
2019-02-17T15:04:45.384Z,11.43
2019-02-17T15:07:16.088Z,11.17
2019-02-17T15:09:46.693Z,14.03
2019-02-17T15:12:17.300Z,11.53
2019-02-17T15:14:48.152Z,10.43
2019-02-17T15:17:18.803Z,14.80
2019-02-17T15:19:49.624Z,12.13
2019-02-17T15:22:20.384Z,11.87
2019-02-17T15:24:51.238Z,12.77
2019-02-17T15:27:21.970Z,10.87
2019-02-17T15:29:52.652Z,12.93
2019-02-17T15:32:23.260Z,13.73
2019-02-17T15:34:56.012Z,13.67
2019-02-17T15:37:26.649Z,11.90
2019-02-17T15:39:57.347Z,16.40
2019-02-17T15:42:28.343Z,13.87
2019-02-17T15:44:58.973Z,15.03
2019-02-17T15:47:29.757Z,15.47
2019-02-17T15:50:00.575Z,15.97
2019-02-17T15:52:31.293Z,13.90
2019-02-17T15:55:02.164Z,15.17
2019-02-17T15:57:33.223Z,16.53
2019-02-17T16:00:04.541Z,22.57
2019-02-17T16:02:35.411Z,17.60
2019-02-17T16:05:06.801Z,16.03
2019-02-17T16:07:37.394Z,21.53
2019-02-17T16:10:09.211Z,20.97
2019-02-17T16:12:41.047Z,17.77
2019-02-17T16:15:14.648Z,20.13
2019-02-17T16:17:45.465Z,19.77
2019-02-17T16:20:16.285Z,17.07
2019-02-17T16:22:47.148Z,19.27
2019-02-17T16:25:18.166Z,20.73
2019-02-17T16:27:49.135Z,20.10
2019-02-17T16:30:19.966Z,24.23
2019-02-17T16:32:50.903Z,19.30
2019-02-17T16:35:21.749Z,21.47
2019-02-17T16:37:53.013Z,20.03
2019-02-17T16:40:24.421Z,23.67
2019-02-17T16:42:55.014Z,21.47
2019-02-17T16:45:26.013Z,23.73
2019-02-17T16:47:56.960Z,23.27
2019-02-17T16:50:27.773Z,26.77
2019-02-17T16:52:58.500Z,24.63
2019-02-17T16:55:29.650Z,21.37
2019-02-17T16:58:00.590Z,24.27
2019-02-17T17:00:31.944Z,22.53
2019-02-17T17:03:02.924Z,23.33
2019-02-17T17:05:34.055Z,22.93
2019-02-17T17:08:05.130Z,24.03
2019-02-17T17:10:35.833Z,25.97
2019-02-17T17:13:06.515Z,29.67
2019-02-17T17:15:37.118Z,29.70
2019-02-17T17:18:07.996Z,28.40
2019-02-17T17:20:38.865Z,29.23
2019-02-17T17:23:09.418Z,29.87
2019-02-17T17:25:40.812Z,29.30
2019-02-17T17:28:11.441Z,28.30
2019-02-17T17:30:42.535Z,31.50
2019-02-17T17:33:13.851Z,29.37
2019-02-17T17:35:44.774Z,26.40
2019-02-17T17:38:16.660Z,29.27
2019-02-17T17:40:47.472Z,27.53
2019-02-17T17:43:18.143Z,27.40
2019-02-17T17:45:49.159Z,28.40
2019-02-17T17:48:20.033Z,27.80
2019-02-17T17:50:50.959Z,27.23
2019-02-17T17:53:21.466Z,28.57
2019-02-17T17:55:52.409Z,29.70
2019-02-17T17:58:23.532Z,27.20
2019-02-17T18:00:54.421Z,30.93
2019-02-17T18:03:25.429Z,32.67
2019-02-17T18:05:56.195Z,29.80
2019-02-17T18:08:26.832Z,29.03
2019-02-17T18:10:57.663Z,26.90
2019-02-17T18:13:34.895Z,27.33
2019-02-17T18:16:05.715Z,27.90
2019-02-17T18:18:36.689Z,25.07
2019-02-17T18:21:07.331Z,26.80
2019-02-17T18:23:38.254Z,26.20
2019-02-17T18:26:09.291Z,26.87
2019-02-17T18:28:39.844Z,25.07
2019-02-17T18:31:10.801Z,27.97
2019-02-17T18:33:41.367Z,26.53
2019-02-17T18:36:12.233Z,27.50
2019-02-17T18:38:42.931Z,27.93
2019-02-17T18:41:13.702Z,26.93
2019-02-17T18:43:44.530Z,30.00
2019-02-17T18:46:15.034Z,30.93
2019-02-17T18:48:46.215Z,33.00
2019-02-17T18:51:16.764Z,32.77
2019-02-17T18:53:47.840Z,29.87
2019-02-17T18:56:18.803Z,31.40
2019-02-17T18:58:49.893Z,28.00
2019-02-17T19:01:23.879Z,25.27
2019-02-17T19:03:54.349Z,24.93
2019-02-17T19:06:24.994Z,25.00
2019-02-17T19:08:55.563Z,25.33
2019-02-17T19:11:26.014Z,24.90
2019-02-17T19:13:56.567Z,25.30
2019-02-17T19:16:27.201Z,26.47
2019-02-17T19:18:57.833Z,22.77
2019-02-17T19:21:28.583Z,26.40
2019-02-17T19:23:59.111Z,23.40
2019-02-17T19:26:30.041Z,24.23
2019-02-17T19:29:00.493Z,21.70
2019-02-17T19:31:31.294Z,24.20
2019-02-17T19:34:02.495Z,21.63
2019-02-17T19:36:33.674Z,22.60
2019-02-17T19:39:05.980Z,28.07
2019-02-17T19:41:38.471Z,24.43
2019-02-17T19:44:09.582Z,30.83
2019-02-17T19:46:41.054Z,25.63
2019-02-17T19:49:12.279Z,20.43
2019-02-17T19:51:43.312Z,25.60
2019-02-17T19:54:14.106Z,24.63
2019-02-17T19:56:45.055Z,22.93
2019-02-17T19:59:16.063Z,26.33
2019-02-17T20:01:47.056Z,25.37
2019-02-17T20:04:24.008Z,31.00
2019-02-17T20:06:55.192Z,30.07
2019-02-17T20:09:25.900Z,26.07
2019-02-17T20:11:56.743Z,29.03
2019-02-17T20:14:27.617Z,28.77
2019-02-17T20:16:58.607Z,30.20
2019-02-17T20:19:29.439Z,29.73
2019-02-17T20:22:01.524Z,27.13
2019-02-17T20:24:32.717Z,30.30
2019-02-17T20:27:05.853Z,26.77
2019-02-17T20:29:37.682Z,38.73
2019-02-17T20:32:08.391Z,31.43
2019-02-17T20:34:39.277Z,33.83
2019-02-17T20:37:10.153Z,44.13
2019-02-17T20:39:41.396Z,27.80
2019-02-17T20:42:12.455Z,31.77
2019-02-17T20:44:43.213Z,30.00
2019-02-17T20:47:13.879Z,33.07
2019-02-17T20:49:44.550Z,29.90
2019-02-17T20:52:15.467Z,34.50
2019-02-17T20:54:46.573Z,33.47
2019-02-17T20:57:17.290Z,33.00
2019-02-17T20:59:48.237Z,33.93
2019-02-17T21:02:19.077Z,29.57
2019-02-17T21:04:50.178Z,33.20
2019-02-17T21:07:21.160Z,29.23
2019-02-17T21:09:52.355Z,32.00
2019-02-17T21:12:23.122Z,25.83
2019-02-17T21:14:54.105Z,28.40
2019-02-17T21:17:24.671Z,27.47
2019-02-17T21:19:55.640Z,28.77
2019-02-17T21:22:26.800Z,33.63
2019-02-17T21:24:57.567Z,29.70
2019-02-17T21:27:28.182Z,28.30
2019-02-17T21:29:58.829Z,26.10
2019-02-17T21:32:29.827Z,27.60
2019-02-17T21:35:00.462Z,26.77
2019-02-17T21:37:31.062Z,29.23
2019-02-17T21:40:01.910Z,28.30
2019-02-17T21:42:34.200Z,29.87
2019-02-17T21:45:05.405Z,28.97
2019-02-17T21:47:36.076Z,29.23
2019-02-17T21:50:07.452Z,25.57
2019-02-17T21:52:38.577Z,26.77
2019-02-17T21:55:09.568Z,27.90
2019-02-17T21:57:40.277Z,30.20
2019-02-17T22:00:14.614Z,29.93
2019-02-17T22:02:45.601Z,29.83
2019-02-17T22:05:16.668Z,26.43
2019-02-17T22:07:48.251Z,32.03
2019-02-17T22:10:18.912Z,31.43
2019-02-17T22:12:51.336Z,26.73
2019-02-17T22:15:22.283Z,28.17
2019-02-17T22:17:53.663Z,29.63
2019-02-17T22:20:24.525Z,30.67
2019-02-17T22:22:55.195Z,27.77
2019-02-17T22:25:26.095Z,26.87
2019-02-17T22:27:57.059Z,26.90
2019-02-17T22:30:28.026Z,27.17
2019-02-17T22:32:58.639Z,36.53
2019-02-17T22:35:29.846Z,28.60
2019-02-17T22:38:00.599Z,26.47
2019-02-17T22:40:32.791Z,26.50
2019-02-17T22:43:04.906Z,30.57
2019-02-17T22:45:35.672Z,27.27
2019-02-17T22:48:06.371Z,26.73
2019-02-17T22:50:37.226Z,27.30
2019-02-17T22:53:07.968Z,23.27
2019-02-17T22:55:38.625Z,27.23
2019-02-17T22:58:09.164Z,28.23
2019-02-17T23:00:59.635Z,27.43
2019-02-17T23:03:32.930Z,35.77
2019-02-17T23:06:03.932Z,28.27
2019-02-17T23:08:34.942Z,27.67
2019-02-17T23:11:05.572Z,37.27
2019-02-17T23:13:36.398Z,43.10
2019-02-17T23:16:07.112Z,44.57
2019-02-17T23:18:37.858Z,53.10
2019-02-17T23:21:08.368Z,51.07
2019-02-17T23:23:38.856Z,47.30
2019-02-17T23:26:09.594Z,39.30
2019-02-17T23:28:41.798Z,38.03
2019-02-17T23:31:13.817Z,55.63
2019-02-17T23:33:44.426Z,44.80
2019-02-17T23:36:15.321Z,40.33
2019-02-17T23:38:45.804Z,41.07
2019-02-17T23:41:16.462Z,47.67
2019-02-17T23:43:47.641Z,49.43
2019-02-17T23:46:18.588Z,48.80
2019-02-17T23:48:49.163Z,52.13
2019-02-17T23:51:20.242Z,53.83
2019-02-17T23:53:51.117Z,57.87
2019-02-17T23:56:21.613Z,55.20
2019-02-17T23:58:52.234Z,46.30
